createdAt,value
2023-04-29T00:00:56.609Z,12.32
2023-04-29T00:01:56.626Z,12.32
2023-04-29T00:02:56.697Z,12.31
2023-04-29T00:03:56.775Z,12.31
2023-04-29T00:04:56.741Z,12.29
2023-04-29T00:05:56.691Z,12.27
2023-04-29T00:06:56.578Z,12.27
2023-04-29T00:07:56.548Z,12.27
2023-04-29T00:08:56.577Z,12.24
2023-04-29T00:09:56.538Z,12.24
2023-04-29T00:10:56.526Z,12.24
2023-04-29T00:11:56.500Z,12.22
2023-04-29T00:12:56.486Z,12.20
2023-04-29T00:13:56.505Z,12.18
2023-04-29T00:14:56.491Z,12.15
2023-04-29T00:15:56.474Z,12.15
2023-04-29T00:16:56.473Z,12.12
2023-04-29T00:17:56.478Z,12.12
2023-04-29T00:18:56.442Z,12.12
2023-04-29T00:19:56.448Z,12.09
2023-04-29T00:20:56.418Z,12.07
2023-04-29T00:21:56.408Z,12.07
2023-04-29T00:22:56.402Z,12.06
2023-04-29T00:23:56.375Z,12.06
2023-04-29T00:24:56.389Z,12.04
2023-04-29T00:25:56.360Z,12.06
2023-04-29T00:26:56.343Z,12.04
2023-04-29T00:27:56.330Z,12.04
2023-04-29T00:28:56.339Z,12.02
2023-04-29T00:29:56.394Z,11.99
2023-04-29T00:30:56.433Z,11.99
2023-04-29T00:31:56.306Z,11.94
2023-04-29T00:32:56.314Z,11.91
2023-04-29T00:33:56.292Z,11.90
2023-04-29T00:34:56.281Z,11.86
2023-04-29T00:35:56.284Z,11.84
2023-04-29T00:36:56.248Z,11.80
2023-04-29T00:37:56.247Z,11.77
2023-04-29T00:38:56.216Z,11.75
2023-04-29T00:39:56.227Z,11.73
2023-04-29T00:40:56.223Z,11.69
2023-04-29T00:41:56.224Z,11.69
2023-04-29T00:42:56.193Z,11.65
2023-04-29T00:43:56.192Z,11.63
2023-04-29T00:44:56.177Z,11.62
2023-04-29T00:45:56.219Z,11.59
2023-04-29T00:46:56.191Z,11.57
2023-04-29T00:47:56.170Z,11.54
2023-04-29T00:48:56.129Z,11.54
2023-04-29T00:49:56.111Z,11.52
2023-04-29T00:50:56.113Z,11.51
2023-04-29T00:51:56.120Z,11.51
2023-04-29T00:52:56.097Z,11.51
2023-04-29T00:53:56.072Z,11.51
2023-04-29T00:54:56.064Z,11.51
2023-04-29T00:55:56.053Z,11.52
2023-04-29T00:56:56.055Z,11.52
2023-04-29T00:57:56.077Z,11.52
2023-04-29T00:58:56.027Z,11.52
2023-04-29T00:59:56.024Z,11.51
2023-04-29T01:00:56.479Z,11.51
2023-04-29T01:01:56.077Z,11.50
2023-04-29T01:02:56.071Z,11.50
2023-04-29T01:03:56.208Z,11.48
2023-04-29T01:04:55.992Z,11.47
2023-04-29T01:05:55.948Z,11.47
2023-04-29T01:06:55.942Z,11.47
2023-04-29T01:07:55.929Z,11.45
2023-04-29T01:08:55.956Z,11.43
2023-04-29T01:09:56.000Z,11.43
2023-04-29T01:10:55.931Z,11.44
2023-04-29T01:11:55.911Z,11.43
2023-04-29T01:12:55.897Z,11.41
2023-04-29T01:13:55.898Z,11.40
2023-04-29T01:14:55.897Z,11.40
2023-04-29T01:15:55.906Z,11.40
2023-04-29T01:16:55.843Z,11.41
2023-04-29T01:17:55.836Z,11.41
2023-04-29T01:18:55.815Z,11.40
2023-04-29T01:19:55.802Z,11.40
2023-04-29T01:20:55.813Z,11.37
2023-04-29T01:21:55.796Z,11.40
2023-04-29T01:22:55.779Z,11.36
2023-04-29T01:23:55.778Z,11.33
2023-04-29T01:24:55.784Z,11.32
2023-04-29T01:25:55.774Z,11.29
2023-04-29T01:26:55.781Z,11.27
2023-04-29T01:27:55.744Z,11.27
2023-04-29T01:28:55.722Z,11.27
2023-04-29T01:29:55.718Z,11.29
2023-04-29T01:30:55.719Z,11.26
2023-04-29T01:31:55.781Z,11.26
2023-04-29T01:32:55.751Z,11.26
2023-04-29T01:33:55.663Z,11.25
2023-04-29T01:34:55.682Z,11.22
2023-04-29T01:35:55.638Z,11.19
2023-04-29T01:36:55.646Z,11.17
2023-04-29T01:37:55.680Z,11.15
2023-04-29T01:38:55.639Z,11.12
2023-04-29T01:39:55.660Z,11.14
2023-04-29T01:40:55.600Z,11.15
2023-04-29T01:41:55.594Z,11.14
2023-04-29T01:42:55.564Z,11.14
2023-04-29T01:43:55.617Z,11.14
2023-04-29T01:44:55.590Z,11.15
2023-04-29T01:45:55.542Z,11.12
2023-04-29T01:46:55.594Z,11.14
2023-04-29T01:47:55.560Z,11.12
2023-04-29T01:48:55.568Z,11.14
2023-04-29T01:49:55.572Z,11.12
2023-04-29T01:50:55.513Z,11.12
2023-04-29T01:51:55.497Z,11.12
2023-04-29T01:52:55.487Z,11.11
2023-04-29T01:53:55.477Z,11.08
2023-04-29T01:54:55.451Z,11.08
2023-04-29T01:55:55.458Z,11.07
2023-04-29T01:56:55.443Z,11.05
2023-04-29T01:57:55.425Z,11.05
2023-04-29T01:58:55.408Z,11.04
2023-04-29T01:59:55.457Z,11.04
2023-04-29T02:00:55.497Z,11.04
2023-04-29T02:01:55.372Z,11.04
2023-04-29T02:02:55.431Z,11.04
2023-04-29T02:03:55.501Z,11.05
2023-04-29T02:04:55.404Z,11.04
2023-04-29T02:05:55.333Z,11.04
2023-04-29T02:06:55.368Z,11.07
2023-04-29T02:07:55.325Z,11.05
2023-04-29T02:08:55.324Z,11.05
2023-04-29T02:09:55.312Z,11.07
2023-04-29T02:10:55.301Z,11.07
2023-04-29T02:11:55.338Z,11.07
2023-04-29T02:12:55.374Z,11.05
2023-04-29T02:13:55.283Z,11.04
2023-04-29T02:14:55.256Z,11.04
2023-04-29T02:15:55.347Z,11.04
2023-04-29T02:16:55.245Z,11.04
2023-04-29T02:17:55.286Z,11.02
2023-04-29T02:18:55.222Z,11.00
2023-04-29T02:19:55.227Z,11.00
2023-04-29T02:20:55.180Z,11.02
2023-04-29T02:21:55.177Z,10.99
2023-04-29T02:22:55.218Z,11.00
2023-04-29T02:23:55.283Z,11.00
2023-04-29T02:24:55.150Z,10.99
2023-04-29T02:25:55.137Z,10.97
2023-04-29T02:26:55.141Z,10.99
2023-04-29T02:27:55.582Z,11.00
2023-04-29T02:28:55.110Z,11.00
2023-04-29T02:29:55.094Z,11.00
2023-04-29T02:30:55.090Z,11.02
2023-04-29T02:31:55.130Z,11.04
2023-04-29T02:32:55.073Z,11.05
2023-04-29T02:33:55.092Z,11.07
2023-04-29T02:34:55.055Z,11.08
2023-04-29T02:35:55.042Z,11.11
2023-04-29T02:36:55.033Z,11.10
2023-04-29T02:37:55.042Z,11.08
2023-04-29T02:38:55.078Z,11.11
2023-04-29T02:39:55.241Z,11.10
2023-04-29T02:40:55.004Z,11.11
2023-04-29T02:41:54.998Z,11.07
2023-04-29T02:42:54.975Z,11.07
2023-04-29T02:43:54.970Z,11.04
2023-04-29T02:44:54.983Z,11.04
2023-04-29T02:45:54.969Z,11.04
2023-04-29T02:46:54.944Z,11.02
2023-04-29T02:47:54.954Z,11.02
2023-04-29T02:48:54.935Z,11.00
2023-04-29T02:49:54.955Z,10.99
2023-04-29T02:50:54.900Z,10.97
2023-04-29T02:51:54.894Z,10.97
2023-04-29T02:52:54.864Z,10.99
2023-04-29T02:53:54.860Z,10.97
2023-04-29T02:54:54.860Z,10.97
2023-04-29T02:55:54.872Z,10.96
2023-04-29T02:56:54.853Z,10.97
2023-04-29T02:57:54.841Z,10.96
2023-04-29T02:58:54.808Z,10.96
2023-04-29T02:59:54.848Z,10.96
2023-04-29T03:00:54.824Z,10.92
2023-04-29T03:01:54.826Z,10.92
2023-04-29T03:02:54.853Z,10.92
2023-04-29T03:03:55.035Z,10.90
2023-04-29T03:04:54.743Z,10.89
2023-04-29T03:05:54.728Z,10.90
2023-04-29T03:06:54.729Z,10.90
2023-04-29T03:07:54.766Z,10.93
2023-04-29T03:08:54.706Z,10.92
2023-04-29T03:09:54.886Z,10.92
2023-04-29T03:10:54.710Z,10.90
2023-04-29T03:11:54.680Z,10.90
2023-04-29T03:12:54.682Z,10.89
2023-04-29T03:13:54.678Z,10.86
2023-04-29T03:14:54.646Z,10.84
2023-04-29T03:15:54.643Z,10.82
2023-04-29T03:16:54.648Z,10.86
2023-04-29T03:17:54.649Z,10.84
2023-04-29T03:18:54.648Z,10.84
2023-04-29T03:19:54.890Z,10.84
2023-04-29T03:20:54.594Z,10.86
2023-04-29T03:21:54.573Z,10.82
2023-04-29T03:22:54.565Z,10.84
2023-04-29T03:23:54.553Z,10.81
2023-04-29T03:24:54.563Z,10.79
2023-04-29T03:25:54.623Z,10.79
2023-04-29T03:26:54.518Z,10.76
2023-04-29T03:27:54.496Z,10.75
2023-04-29T03:28:54.503Z,10.71
2023-04-29T03:29:54.801Z,10.71
2023-04-29T03:30:54.567Z,10.67
2023-04-29T03:31:54.456Z,10.64
2023-04-29T03:32:54.506Z,10.63
2023-04-29T03:33:54.433Z,10.63
2023-04-29T03:34:54.432Z,10.61
2023-04-29T03:35:54.458Z,10.59
2023-04-29T03:36:54.412Z,10.57
2023-04-29T03:37:54.408Z,10.56
2023-04-29T03:38:54.417Z,10.53
2023-04-29T03:39:54.721Z,10.51
2023-04-29T03:40:54.381Z,10.49
2023-04-29T03:41:54.386Z,10.48
2023-04-29T03:42:54.378Z,10.48
2023-04-29T03:43:54.350Z,10.44
2023-04-29T03:44:54.389Z,10.41
2023-04-29T03:45:54.377Z,10.42
2023-04-29T03:46:54.375Z,10.41
2023-04-29T03:47:54.346Z,10.41
2023-04-29T03:48:54.300Z,10.40
2023-04-29T03:49:54.506Z,10.41
2023-04-29T03:50:54.289Z,10.42
2023-04-29T03:51:54.303Z,10.44
2023-04-29T03:52:54.266Z,10.46
2023-04-29T03:53:54.229Z,10.49
2023-04-29T03:54:54.261Z,10.49
2023-04-29T03:55:54.230Z,10.53
2023-04-29T03:56:55.915Z,10.57
2023-04-29T03:57:54.258Z,10.60
2023-04-29T03:58:54.183Z,10.61
2023-04-29T03:59:54.441Z,10.67
2023-04-29T04:00:54.169Z,10.68
2023-04-29T04:01:54.303Z,10.72
2023-04-29T04:02:54.358Z,10.75
2023-04-29T04:03:54.237Z,10.76
2023-04-29T04:04:54.180Z,10.79
2023-04-29T04:05:54.132Z,10.82
2023-04-29T04:06:54.114Z,10.86
2023-04-29T04:07:54.118Z,10.87
2023-04-29T04:08:54.088Z,10.89
2023-04-29T04:09:54.446Z,10.90
2023-04-29T04:10:54.060Z,10.90
2023-04-29T04:11:54.069Z,10.90
2023-04-29T04:12:54.046Z,10.90
2023-04-29T04:13:54.079Z,10.94
2023-04-29T04:14:54.070Z,10.93
2023-04-29T04:15:54.042Z,10.94
2023-04-29T04:16:54.000Z,10.96
2023-04-29T04:17:54.015Z,10.99
2023-04-29T04:18:54.044Z,11.00
2023-04-29T04:19:54.279Z,11.02
2023-04-29T04:20:53.962Z,11.04
2023-04-29T04:21:53.946Z,11.05
2023-04-29T04:22:53.965Z,11.04
2023-04-29T04:23:53.929Z,11.07
2023-04-29T04:24:53.953Z,11.05
2023-04-29T04:25:53.914Z,11.08
2023-04-29T04:26:53.913Z,11.08
2023-04-29T04:27:53.893Z,11.10
2023-04-29T04:28:53.908Z,11.07
2023-04-29T04:29:54.181Z,11.08
2023-04-29T04:30:53.881Z,11.08
2023-04-29T04:31:53.921Z,11.08
2023-04-29T04:32:53.879Z,11.08
2023-04-29T04:33:53.822Z,11.07
2023-04-29T04:34:53.825Z,11.05
2023-04-29T04:35:53.842Z,11.07
2023-04-29T04:36:53.836Z,11.07
2023-04-29T04:37:53.799Z,11.07
2023-04-29T04:38:53.785Z,11.08
2023-04-29T04:39:54.131Z,11.08
2023-04-29T04:40:53.762Z,11.08
2023-04-29T04:41:53.762Z,11.08
2023-04-29T04:42:55.172Z,11.07
2023-04-29T04:43:53.741Z,11.07
2023-04-29T04:44:53.764Z,11.10
2023-04-29T04:45:53.784Z,11.11
2023-04-29T04:46:53.714Z,11.11
2023-04-29T04:47:53.760Z,11.12
2023-04-29T04:48:53.685Z,11.14
2023-04-29T04:49:53.981Z,11.14
2023-04-29T04:50:53.658Z,11.17
2023-04-29T04:51:53.664Z,11.17
2023-04-29T04:52:53.674Z,11.15
2023-04-29T04:53:53.621Z,11.18
2023-04-29T04:54:53.633Z,11.19
2023-04-29T04:55:53.622Z,11.23
2023-04-29T04:56:53.610Z,11.23
2023-04-29T04:57:53.615Z,11.26
2023-04-29T04:58:53.627Z,11.26
2023-04-29T04:59:53.844Z,11.26
2023-04-29T05:00:53.609Z,11.27
2023-04-29T05:01:53.594Z,11.27
2023-04-29T05:02:53.683Z,11.29
2023-04-29T05:03:53.583Z,11.27
2023-04-29T05:04:53.532Z,11.29
2023-04-29T05:05:53.524Z,11.30
2023-04-29T05:06:53.503Z,11.30
2023-04-29T05:07:53.525Z,11.29
2023-04-29T05:08:53.506Z,11.29
2023-04-29T05:09:53.637Z,11.29
2023-04-29T05:10:54.317Z,11.27
2023-04-29T05:11:53.451Z,11.27
2023-04-29T05:12:53.434Z,11.25
2023-04-29T05:13:53.448Z,11.23
2023-04-29T05:14:53.428Z,11.19
2023-04-29T05:15:53.394Z,11.22
2023-04-29T05:16:53.511Z,11.19
2023-04-29T05:17:53.435Z,11.22
2023-04-29T05:18:53.396Z,11.22
2023-04-29T05:19:53.678Z,11.22
2023-04-29T05:20:53.380Z,11.19
2023-04-29T05:21:53.342Z,11.22
2023-04-29T05:22:53.353Z,11.22
2023-04-29T05:23:53.343Z,11.23
2023-04-29T05:24:53.555Z,11.26
2023-04-29T05:25:53.312Z,11.27
2023-04-29T05:26:53.314Z,11.30
2023-04-29T05:27:53.289Z,11.32
2023-04-29T05:28:53.290Z,11.33
2023-04-29T05:29:53.563Z,11.35
2023-04-29T05:30:53.299Z,11.36
2023-04-29T05:31:53.261Z,11.40
2023-04-29T05:32:53.287Z,11.41
2023-04-29T05:33:53.236Z,11.44
2023-04-29T05:34:53.224Z,11.45
2023-04-29T05:35:53.235Z,11.48
2023-04-29T05:36:53.214Z,11.48
2023-04-29T05:37:53.179Z,11.51
2023-04-29T05:38:53.187Z,11.52
2023-04-29T05:39:53.494Z,11.54
2023-04-29T05:40:53.214Z,11.59
2023-04-29T05:41:53.183Z,11.55
2023-04-29T05:42:53.146Z,11.59
2023-04-29T05:43:53.149Z,11.59
2023-04-29T05:44:53.107Z,11.63
2023-04-29T05:45:53.183Z,11.63
2023-04-29T05:46:53.100Z,11.63
2023-04-29T05:47:53.211Z,11.63
2023-04-29T05:48:53.071Z,11.66
2023-04-29T05:49:53.407Z,11.66
2023-04-29T05:50:53.065Z,11.65
2023-04-29T05:51:53.049Z,11.65
2023-04-29T05:52:53.048Z,11.65
2023-04-29T05:53:53.029Z,11.66
2023-04-29T05:54:53.026Z,11.68
2023-04-29T05:55:53.042Z,11.69
2023-04-29T05:56:52.995Z,11.70
2023-04-29T05:57:52.976Z,11.72
2023-04-29T05:58:52.988Z,11.77
2023-04-29T05:59:53.166Z,11.78
2023-04-29T06:00:52.976Z,11.80
2023-04-29T06:01:52.973Z,11.84
2023-04-29T06:02:58.585Z,11.84
2023-04-29T06:03:53.097Z,11.86
2023-04-29T06:04:53.293Z,11.87
2023-04-29T06:05:53.152Z,11.87
2023-04-29T06:06:52.890Z,11.90
2023-04-29T06:07:52.896Z,11.91
2023-04-29T06:08:52.873Z,11.90
2023-04-29T06:09:53.064Z,11.90
2023-04-29T06:10:52.868Z,11.88
2023-04-29T06:11:52.837Z,11.88
2023-04-29T06:12:52.877Z,11.91
2023-04-29T06:13:52.828Z,11.91
2023-04-29T06:14:52.827Z,11.94
2023-04-29T06:15:52.880Z,11.94
2023-04-29T06:16:52.782Z,11.97
2023-04-29T06:17:52.890Z,11.99
2023-04-29T06:18:52.805Z,11.99
2023-04-29T06:19:53.037Z,12.02
2023-04-29T06:20:52.743Z,12.04
2023-04-29T06:21:52.735Z,12.02
2023-04-29T06:22:52.732Z,12.03
2023-04-29T06:23:52.707Z,12.02
2023-04-29T06:24:52.744Z,12.02
2023-04-29T06:25:53.255Z,12.04
2023-04-29T06:26:52.700Z,12.02
2023-04-29T06:27:52.705Z,12.02
2023-04-29T06:28:52.679Z,12.03
2023-04-29T06:29:53.228Z,12.03
2023-04-29T06:30:52.658Z,12.03
2023-04-29T06:31:52.694Z,12.02
2023-04-29T06:32:52.669Z,11.99
2023-04-29T06:33:52.627Z,11.99
2023-04-29T06:34:52.614Z,12.00
2023-04-29T06:35:52.623Z,12.02
2023-04-29T06:36:52.606Z,12.03
2023-04-29T06:37:52.589Z,12.03
2023-04-29T06:38:52.582Z,12.06
2023-04-29T06:39:52.825Z,12.09
2023-04-29T06:40:52.553Z,12.13
2023-04-29T06:41:52.560Z,12.13
2023-04-29T06:42:52.517Z,12.17
2023-04-29T06:43:52.532Z,12.18
2023-04-29T06:44:52.542Z,12.20
2023-04-29T06:45:52.668Z,12.22
2023-04-29T06:46:52.528Z,12.24
2023-04-29T06:47:52.524Z,12.27
2023-04-29T06:48:52.472Z,12.28
2023-04-29T06:49:52.712Z,12.29
2023-04-29T06:50:52.474Z,12.31
2023-04-29T06:51:52.421Z,12.35
2023-04-29T06:52:52.430Z,12.37
2023-04-29T06:53:52.438Z,12.40
2023-04-29T06:54:52.406Z,12.43
2023-04-29T06:55:52.378Z,12.47
2023-04-29T06:56:52.398Z,12.50
2023-04-29T06:57:52.388Z,12.54
2023-04-29T06:58:52.480Z,12.55
2023-04-29T06:59:52.456Z,12.55
2023-04-29T07:00:52.460Z,12.55
2023-04-29T07:01:52.478Z,12.57
2023-04-29T07:02:52.345Z,12.55
2023-04-29T07:03:52.447Z,12.55
2023-04-29T07:04:52.399Z,12.57
2023-04-29T07:05:52.291Z,12.58
2023-04-29T07:06:52.294Z,12.57
2023-04-29T07:07:52.294Z,12.58
2023-04-29T07:08:53.663Z,12.57
2023-04-29T07:09:52.513Z,12.58
2023-04-29T07:10:52.244Z,12.58
2023-04-29T07:11:52.230Z,12.61
2023-04-29T07:12:52.222Z,12.61
2023-04-29T07:13:52.247Z,12.62
2023-04-29T07:14:52.204Z,12.62
2023-04-29T07:15:52.208Z,12.65
2023-04-29T07:16:52.234Z,12.67
2023-04-29T07:17:52.190Z,12.70
2023-04-29T07:18:52.197Z,12.75
2023-04-29T07:19:52.333Z,12.75
2023-04-29T07:20:52.153Z,12.75
2023-04-29T07:21:52.140Z,12.73
2023-04-29T07:22:52.123Z,12.73
2023-04-29T07:23:52.112Z,12.75
2023-04-29T07:24:52.331Z,12.73
2023-04-29T07:25:52.092Z,12.75
2023-04-29T07:26:52.069Z,12.75
2023-04-29T07:27:52.078Z,12.79
2023-04-29T07:28:52.064Z,12.80
2023-04-29T07:29:52.067Z,12.85
2023-04-29T07:30:52.093Z,12.82
2023-04-29T07:31:52.018Z,12.82
2023-04-29T07:32:52.025Z,12.80
2023-04-29T07:33:52.000Z,12.82
2023-04-29T07:34:52.106Z,12.80
2023-04-29T07:35:52.009Z,12.82
2023-04-29T07:36:52.001Z,12.82
2023-04-29T07:37:51.979Z,12.86
2023-04-29T07:38:51.948Z,12.86
2023-04-29T07:39:51.957Z,12.86
2023-04-29T07:40:51.959Z,12.87
2023-04-29T07:41:51.939Z,12.91
2023-04-29T07:42:52.120Z,12.93
2023-04-29T07:43:51.894Z,12.95
2023-04-29T07:44:52.104Z,12.93
2023-04-29T07:45:51.909Z,12.94
2023-04-29T07:46:51.896Z,12.91
2023-04-29T07:47:51.986Z,12.91
2023-04-29T07:48:51.846Z,12.90
2023-04-29T07:49:51.842Z,12.90
2023-04-29T07:50:51.851Z,12.90
2023-04-29T07:51:51.882Z,12.87
2023-04-29T07:52:51.812Z,12.93
2023-04-29T07:53:51.813Z,12.93
2023-04-29T07:54:52.032Z,12.91
2023-04-29T07:55:51.792Z,12.93
2023-04-29T07:56:51.777Z,12.94
2023-04-29T07:57:51.777Z,12.95
2023-04-29T07:58:51.741Z,12.97
2023-04-29T07:59:51.740Z,12.98
2023-04-29T08:00:51.752Z,12.95
2023-04-29T08:01:51.730Z,12.95
2023-04-29T08:02:51.851Z,12.97
2023-04-29T08:03:51.919Z,12.97
2023-04-29T08:04:52.358Z,12.97
2023-04-29T08:05:51.714Z,12.97
2023-04-29T08:06:51.695Z,12.98
2023-04-29T08:07:51.658Z,13.03
2023-04-29T08:08:51.631Z,13.04
2023-04-29T08:09:51.654Z,13.04
2023-04-29T08:10:51.617Z,13.05
2023-04-29T08:11:51.629Z,13.05
2023-04-29T08:12:51.627Z,13.08
2023-04-29T08:13:51.598Z,13.09
2023-04-29T08:14:51.728Z,13.12
2023-04-29T08:15:51.610Z,13.12
2023-04-29T08:16:51.563Z,13.13
2023-04-29T08:17:51.666Z,13.12
2023-04-29T08:18:51.543Z,13.11
2023-04-29T08:19:51.546Z,13.12
2023-04-29T08:20:51.545Z,13.15
2023-04-29T08:21:51.511Z,13.15
2023-04-29T08:22:51.493Z,13.15
2023-04-29T08:23:51.513Z,13.16
2023-04-29T08:24:51.642Z,13.19
2023-04-29T08:25:51.485Z,13.19
2023-04-29T08:26:51.470Z,13.22
2023-04-29T08:27:51.493Z,13.23
2023-04-29T08:28:51.460Z,13.20
2023-04-29T08:29:51.448Z,13.18
2023-04-29T08:30:51.473Z,13.18
2023-04-29T08:31:51.452Z,13.12
2023-04-29T08:32:51.410Z,13.11
2023-04-29T08:33:51.422Z,13.12
2023-04-29T08:34:51.935Z,13.12
2023-04-29T08:35:51.390Z,13.12
2023-04-29T08:36:51.376Z,13.11
2023-04-29T08:37:51.354Z,13.09
2023-04-29T08:38:51.583Z,13.08
2023-04-29T08:39:51.347Z,13.04
2023-04-29T08:40:51.322Z,13.04
2023-04-29T08:41:51.334Z,13.04
2023-04-29T08:42:51.314Z,13.03
2023-04-29T08:43:51.306Z,13.01
2023-04-29T08:44:51.668Z,13.00
2023-04-29T08:45:51.298Z,12.98
2023-04-29T08:46:51.271Z,12.95
2023-04-29T08:47:51.416Z,12.95
2023-04-29T08:48:51.318Z,12.93
2023-04-29T08:49:51.249Z,12.93
2023-04-29T08:50:51.252Z,12.87
2023-04-29T08:51:51.208Z,12.86
2023-04-29T08:52:51.199Z,12.85
2023-04-29T08:53:51.188Z,12.85
2023-04-29T08:54:51.352Z,12.87
2023-04-29T08:55:51.164Z,12.90
2023-04-29T08:56:51.193Z,12.91
2023-04-29T08:57:51.160Z,12.93
2023-04-29T08:58:51.145Z,12.95
2023-04-29T08:59:51.141Z,12.95
2023-04-29T09:00:51.139Z,12.98
2023-04-29T09:01:51.144Z,12.98
2023-04-29T09:02:51.158Z,13.00
2023-04-29T09:03:51.239Z,12.98
2023-04-29T09:04:51.441Z,12.98
2023-04-29T09:05:51.075Z,12.98
2023-04-29T09:06:51.083Z,13.00
2023-04-29T09:07:51.054Z,13.00
2023-04-29T09:08:51.044Z,13.03
2023-04-29T09:09:51.026Z,13.03
2023-04-29T09:10:51.033Z,13.03
2023-04-29T09:11:51.512Z,13.05
2023-04-29T09:12:50.989Z,13.08
2023-04-29T09:13:50.975Z,13.09
2023-04-29T09:14:51.192Z,13.11
2023-04-29T09:15:50.969Z,13.12
2023-04-29T09:16:50.972Z,13.12
2023-04-29T09:17:50.992Z,13.13
2023-04-29T09:18:50.969Z,13.13
2023-04-29T09:19:50.933Z,13.12
2023-04-29T09:20:50.901Z,13.11
2023-04-29T09:21:50.902Z,13.04
2023-04-29T09:22:50.898Z,12.98
2023-04-29T09:23:50.911Z,13.00
2023-04-29T09:24:50.999Z,12.98
2023-04-29T09:25:50.855Z,12.98
2023-04-29T09:26:51.764Z,12.98
2023-04-29T09:27:50.843Z,12.97
2023-04-29T09:28:50.851Z,12.97
2023-04-29T09:29:50.863Z,12.95
2023-04-29T09:30:50.814Z,12.94
2023-04-29T09:31:50.828Z,12.94
2023-04-29T09:32:50.837Z,12.93
2023-04-29T09:33:50.780Z,12.94
2023-04-29T09:34:50.965Z,12.93
2023-04-29T09:35:50.808Z,12.94
2023-04-29T09:36:50.793Z,12.94
2023-04-29T09:37:50.740Z,12.95
2023-04-29T09:38:50.741Z,12.95
2023-04-29T09:39:50.730Z,12.95
2023-04-29T09:41:50.750Z,12.93
2023-04-29T09:42:50.681Z,12.90
2023-04-29T09:43:50.683Z,12.91
2023-04-29T09:44:50.734Z,12.91
2023-04-29T09:45:50.690Z,12.90
2023-04-29T09:46:50.685Z,12.90
2023-04-29T09:47:50.711Z,12.91
2023-04-29T09:48:50.634Z,12.91
2023-04-29T09:49:50.624Z,12.90
2023-04-29T09:50:50.608Z,12.90
2023-04-29T09:51:50.585Z,12.90
2023-04-29T09:52:50.619Z,12.90
2023-04-29T09:53:50.579Z,12.93
2023-04-29T09:54:50.565Z,12.93
2023-04-29T09:55:50.549Z,12.94
2023-04-29T09:56:50.573Z,12.91
2023-04-29T09:57:50.541Z,12.91
2023-04-29T09:58:50.547Z,12.93
2023-04-29T09:59:50.519Z,12.91
2023-04-29T10:00:50.518Z,12.91
2023-04-29T10:01:50.524Z,12.91
2023-04-29T10:02:50.589Z,12.94
2023-04-29T10:03:50.590Z,12.93
2023-04-29T10:04:50.546Z,12.94
2023-04-29T10:05:50.502Z,12.95
2023-04-29T10:06:50.456Z,12.95
2023-04-29T10:07:50.451Z,12.95
2023-04-29T10:08:50.431Z,12.97
2023-04-29T10:09:50.431Z,12.98
2023-04-29T10:10:50.409Z,13.00
2023-04-29T10:11:50.440Z,13.00
2023-04-29T10:12:50.387Z,13.01
2023-04-29T10:13:50.389Z,12.98
2023-04-29T10:14:50.602Z,13.01
2023-04-29T10:15:50.411Z,13.00
2023-04-29T10:16:50.353Z,13.01
2023-04-29T10:17:50.360Z,13.03
2023-04-29T10:18:50.409Z,13.04
2023-04-29T10:19:50.308Z,13.05
2023-04-29T10:20:50.314Z,13.05
2023-04-29T10:21:50.313Z,13.05
2023-04-29T10:22:50.335Z,13.09
2023-04-29T10:23:50.277Z,13.08
2023-04-29T10:24:50.412Z,13.05
2023-04-29T10:25:50.255Z,13.04
2023-04-29T10:26:50.257Z,13.04
2023-04-29T10:27:50.261Z,13.05
2023-04-29T10:28:50.219Z,13.05
2023-04-29T10:29:50.208Z,13.09
2023-04-29T10:30:50.220Z,13.11
2023-04-29T10:31:50.306Z,13.13
2023-04-29T10:32:52.088Z,13.15
2023-04-29T10:33:50.206Z,13.16
2023-04-29T10:34:50.216Z,13.19
2023-04-29T10:35:50.147Z,13.22
2023-04-29T10:36:50.152Z,13.23
2023-04-29T10:37:50.154Z,13.27
2023-04-29T10:38:50.151Z,13.27
2023-04-29T10:39:50.102Z,13.25
2023-04-29T10:40:50.099Z,13.27
2023-04-29T10:41:50.095Z,13.20
2023-04-29T10:42:50.069Z,13.18
2023-04-29T10:43:50.058Z,13.16
2023-04-29T10:44:50.224Z,13.19
2023-04-29T10:45:50.065Z,13.19
2023-04-29T10:46:50.044Z,13.23
2023-04-29T10:47:50.071Z,13.28
2023-04-29T10:48:50.010Z,13.33
2023-04-29T10:49:50.032Z,13.38
2023-04-29T10:50:50.097Z,13.41
2023-04-29T10:51:49.991Z,13.42
2023-04-29T10:52:49.991Z,13.42
2023-04-29T10:53:49.991Z,13.38
2023-04-29T10:54:49.977Z,13.39
2023-04-29T10:55:50.007Z,13.33
2023-04-29T10:56:49.952Z,13.31
2023-04-29T10:57:49.929Z,13.35
2023-04-29T10:58:49.934Z,13.33
2023-04-29T10:59:49.917Z,13.35
2023-04-29T11:00:50.018Z,13.37
2023-04-29T11:01:49.936Z,13.37
2023-04-29T11:02:49.984Z,13.37
2023-04-29T11:03:50.036Z,13.38
2023-04-29T11:04:50.011Z,13.42
2023-04-29T11:05:49.853Z,13.47
2023-04-29T11:06:49.840Z,13.50
2023-04-29T11:07:49.871Z,13.53
2023-04-29T11:08:49.821Z,13.50
2023-04-29T11:09:49.835Z,13.53
2023-04-29T11:10:49.800Z,13.52
2023-04-29T11:11:49.805Z,13.49
2023-04-29T11:12:49.789Z,13.47
2023-04-29T11:13:49.841Z,13.47
2023-04-29T11:14:49.768Z,13.47
2023-04-29T11:15:49.769Z,13.44
2023-04-29T11:16:49.812Z,13.46
2023-04-29T11:17:49.782Z,13.47
2023-04-29T11:18:49.711Z,13.46
2023-04-29T11:19:49.752Z,13.47
2023-04-29T11:20:49.694Z,13.44
2023-04-29T11:21:49.706Z,13.42
2023-04-29T11:22:49.667Z,13.41
2023-04-29T11:23:49.668Z,13.39
2023-04-29T11:24:49.665Z,13.37
2023-04-29T11:25:49.763Z,13.31
2023-04-29T11:26:49.669Z,13.27
2023-04-29T11:27:49.633Z,13.27
2023-04-29T11:28:49.614Z,13.22
2023-04-29T11:29:49.610Z,13.19
2023-04-29T11:30:49.593Z,13.16
2023-04-29T11:31:49.704Z,13.15
2023-04-29T11:32:49.670Z,13.12
2023-04-29T11:33:49.578Z,13.09
2023-04-29T11:34:49.556Z,13.08
2023-04-29T11:35:49.548Z,13.04
2023-04-29T11:36:49.574Z,13.03
2023-04-29T11:37:49.533Z,13.04
2023-04-29T11:38:49.532Z,13.01
2023-04-29T11:39:49.505Z,12.98
2023-04-29T11:40:49.492Z,12.95
2023-04-29T11:41:51.244Z,12.94
2023-04-29T11:42:49.643Z,12.91
2023-04-29T11:43:49.463Z,12.87
2023-04-29T11:44:49.473Z,12.85
2023-04-29T11:45:49.461Z,12.82
2023-04-29T11:46:49.418Z,12.83
2023-04-29T11:47:49.537Z,12.80
2023-04-29T11:48:49.432Z,12.83
2023-04-29T11:49:49.406Z,12.83
2023-04-29T11:50:49.400Z,12.86
2023-04-29T11:51:49.384Z,12.86
2023-04-29T11:52:49.392Z,12.86
2023-04-29T11:53:49.380Z,12.90
2023-04-29T11:54:49.350Z,12.94
2023-04-29T11:55:49.338Z,12.97
2023-04-29T11:56:49.331Z,13.01
2023-04-29T11:57:49.324Z,13.05
2023-04-29T11:58:49.313Z,13.11
2023-04-29T11:59:49.315Z,13.15
2023-04-29T12:00:49.298Z,13.19
2023-04-29T12:01:49.284Z,13.25
2023-04-29T12:02:49.467Z,13.28
2023-04-29T12:03:49.444Z,13.31
2023-04-29T12:04:49.430Z,13.37
2023-04-29T12:05:49.308Z,13.39
2023-04-29T12:06:49.248Z,13.42
2023-04-29T12:07:49.217Z,13.44
2023-04-29T12:08:49.224Z,13.47
2023-04-29T12:09:49.208Z,13.52
2023-04-29T12:10:49.208Z,13.52
2023-04-29T12:11:49.192Z,13.52
2023-04-29T12:12:49.179Z,13.54
2023-04-29T12:13:49.159Z,13.53
2023-04-29T12:14:49.161Z,13.56
2023-04-29T12:15:49.171Z,13.57
2023-04-29T12:16:49.164Z,13.56
2023-04-29T12:17:49.172Z,13.57
2023-04-29T12:18:49.099Z,13.56
2023-04-29T12:19:49.083Z,13.59
2023-04-29T12:20:49.098Z,13.57
2023-04-29T12:21:49.077Z,13.57
2023-04-29T12:22:49.089Z,13.59
2023-04-29T12:23:49.047Z,13.57
2023-04-29T12:24:49.053Z,13.56
2023-04-29T12:25:49.053Z,13.57
2023-04-29T12:26:49.052Z,13.54
2023-04-29T12:27:49.031Z,13.52
2023-04-29T12:28:49.018Z,13.50
2023-04-29T12:29:48.988Z,13.49
2023-04-29T12:30:48.985Z,13.46
2023-04-29T12:31:48.999Z,13.44
2023-04-29T12:32:49.024Z,13.47
2023-04-29T12:33:49.335Z,13.44
2023-04-29T12:34:48.948Z,13.44
2023-04-29T12:35:48.925Z,13.44
2023-04-29T12:36:48.932Z,13.42
2023-04-29T12:37:48.934Z,13.41
2023-04-29T12:38:48.909Z,13.44
2023-04-29T12:39:48.938Z,13.44
2023-04-29T12:40:48.863Z,13.46
2023-04-29T12:41:48.863Z,13.47
2023-04-29T12:42:48.889Z,13.49
2023-04-29T12:43:48.850Z,13.53
2023-04-29T12:44:48.892Z,13.54
2023-04-29T12:45:48.853Z,13.54
2023-04-29T12:46:48.905Z,13.57
2023-04-29T12:47:48.820Z,13.54
2023-04-29T12:48:48.789Z,13.54
2023-04-29T12:49:48.769Z,13.56
2023-04-29T12:50:48.781Z,13.57
2023-04-29T12:51:48.789Z,13.57
2023-04-29T12:52:48.773Z,13.59
2023-04-29T12:53:48.749Z,13.60